SLPL weather

Public forecast

Using degrees Celsius for public forecast. Weather courtesy of forecast.io.

Closest aviation weather report (METAR) to Padilla Airport

Report is more than 6 hours old.

Closest report is Monteagudo Airport, 36.9 nm (68.3 km) SSE. Retrieved 2020/07/27 16:00 UTC (17 days ago):

SLAG 271600Z 00000KT 9999 NSC 25/11 Q1014

Closest aviation forecast (TAF) to Padilla Airport

Closest forecast is Alcantarí Airport, 48.6 nm (90.0 km) W. Retrieved 2020/08/13 06:10 UTC (2 hours ago):

TAF SLAL 130400Z 1306/1406 00000KT 9999 FEW020 SCT070 TX19/1319Z TN03 /1311Z BECMG 1314/1316 01010KT BECMG 1403/1405 00000KT NSC